sensor_id;sensor_type;location;lat;lon;timestamp;pressure;altitude;pressure_sealevel;temperature;humidity
62374;BME280;48409;49.030;1.820;2023-01-28T00:01:40;101935.25;;;5.64;65.17
62374;BME280;48409;49.030;1.820;2023-01-28T00:04:05;101937.88;;;5.62;65.10
62374;BME280;48409;49.030;1.820;2023-01-28T00:06:31;101937.88;;;5.62;64.90
62374;BME280;48409;49.030;1.820;2023-01-28T00:08:56;101943.13;;;5.62;64.94
62374;BME280;48409;49.030;1.820;2023-01-28T00:11:22;101944.88;;;5.62;65.09
62374;BME280;48409;49.030;1.820;2023-01-28T00:13:51;101937.88;;;5.61;65.14
62374;BME280;48409;49.030;1.820;2023-01-28T00:16:17;101935.28;;;5.61;64.95
62374;BME280;48409;49.030;1.820;2023-01-28T00:18:43;101932.69;;;5.59;64.91
62374;BME280;48409;49.030;1.820;2023-01-28T00:21:11;101930.09;;;5.58;64.84
62374;BME280;48409;49.030;1.820;2023-01-28T00:23:38;101931.81;;;5.59;64.94
62374;BME280;48409;49.030;1.820;2023-01-28T00:26:10;101938.78;;;5.60;65.21
62374;BME280;48409;49.030;1.820;2023-01-28T00:28:35;101930.94;;;5.58;64.90
62374;BME280;48409;49.030;1.820;2023-01-28T00:31:14;101922.25;;;5.58;65.05
62374;BME280;48409;49.030;1.820;2023-01-28T00:33:41;101925.69;;;5.58;65.08
62374;BME280;48409;49.030;1.820;2023-01-28T00:36:07;101931.81;;;5.57;64.94
62374;BME280;48409;49.030;1.820;2023-01-28T00:38:34;101932.69;;;5.58;64.94
62374;BME280;48409;49.030;1.820;2023-01-28T00:41:10;101931.81;;;5.57;64.94
62374;BME280;48409;49.030;1.820;2023-01-28T00:43:36;101933.59;;;5.57;65.24
62374;BME280;48409;49.030;1.820;2023-01-28T00:46:03;101926.59;;;5.56;64.87
62374;BME280;48409;49.030;1.820;2023-01-28T00:48:29;101930.09;;;5.55;64.80
62374;BME280;48409;49.030;1.820;2023-01-28T00:50:54;101923.13;;;5.54;65.16
62374;BME280;48409;49.030;1.820;2023-01-28T00:53:21;101926.63;;;5.53;64.93
62374;BME280;48409;49.030;1.820;2023-01-28T00:55:46;101941.44;;;5.55;65.14
62374;BME280;48409;49.030;1.820;2023-01-28T00:58:11;101921.41;;;5.53;64.97
62374;BME280;48409;49.030;1.820;2023-01-28T01:00:37;101926.63;;;5.53;64.97
62374;BME280;48409;49.030;1.820;2023-01-28T01:03:02;101928.38;;;5.51;65.04
62374;BME280;48409;49.030;1.820;2023-01-28T01:05:27;101923.13;;;5.51;64.92
62374;BME280;48409;49.030;1.820;2023-01-28T01:07:54;101929.25;;;5.49;64.92
62374;BME280;48409;49.030;1.820;2023-01-28T01:10:19;101926.63;;;5.49;65.08
62374;BME280;48409;49.030;1.820;2023-01-28T01:12:46;101929.25;;;5.49;64.83
62374;BME280;48409;49.030;1.820;2023-01-28T01:15:12;101934.47;;;5.48;65.10
62374;BME280;48409;49.030;1.820;2023-01-28T01:17:43;101926.63;;;5.46;65.09
62374;BME280;48409;49.030;1.820;2023-01-28T01:20:15;101925.78;;;5.46;64.88
62374;BME280;48409;49.030;1.820;2023-01-28T01:22:41;101931.03;;;5.44;64.92
62374;BME280;48409;49.030;1.820;2023-01-28T01:25:07;101948.44;;;5.44;65.07
62374;BME280;48409;49.030;1.820;2023-01-28T01:27:32;101946.69;;;5.43;64.95
62374;BME280;48409;49.030;1.820;2023-01-28T01:29:58;101949.31;;;5.41;64.83
62374;BME280;48409;49.030;1.820;2023-01-28T01:32:24;101945.84;;;5.39;64.84
62374;BME280;48409;49.030;1.820;2023-01-28T01:34:53;101945.84;;;5.39;64.76
62374;BME280;48409;49.030;1.820;2023-01-28T01:37:18;101948.47;;;5.38;64.98
62374;BME280;48409;49.030;1.820;2023-01-28T01:39:43;101957.16;;;5.38;64.86
62374;BME280;48409;49.030;1.820;2023-01-28T01:42:13;101958.03;;;5.35;64.92
62374;BME280;48409;49.030;1.820;2023-01-28T01:44:53;101953.69;;;5.36;64.75
62374;BME280;48409;49.030;1.820;2023-01-28T01:47:24;101959.81;;;5.32;64.95
62374;BME280;48409;49.030;1.820;2023-01-28T01:49:52;101952.84;;;5.31;64.85
62374;BME280;48409;49.030;1.820;2023-01-28T01:52:23;101957.19;;;5.30;64.92
62374;BME280;48409;49.030;1.820;2023-01-28T01:54:51;101959.81;;;5.29;64.82
62374;BME280;48409;49.030;1.820;2023-01-28T01:57:23;101964.19;;;5.27;64.74
62374;BME280;48409;49.030;1.820;2023-01-28T01:59:52;101949.38;;;5.26;65.03
62374;BME280;48409;49.030;1.820;2023-01-28T02:02:18;101964.19;;;5.27;64.86
62374;BME280;48409;49.030;1.820;2023-01-28T02:04:44;101973.75;;;5.25;64.59
62374;BME280;48409;49.030;1.820;2023-01-28T02:07:14;101965.06;;;5.24;64.75
62374;BME280;48409;49.030;1.820;2023-01-28T02:09:41;101965.91;;;5.25;64.95
62374;BME280;48409;49.030;1.820;2023-01-28T02:12:17;101966.81;;;5.22;64.91
62374;BME280;48409;49.030;1.820;2023-01-28T02:14:47;101964.19;;;5.23;65.01
62374;BME280;48409;49.030;1.820;2023-01-28T02:17:15;101971.16;;;5.23;64.83
62374;BME280;48409;49.030;1.820;2023-01-28T02:19:53;101969.41;;;5.23;64.89
62374;BME280;48409;49.030;1.820;2023-01-28T02:26:03;101966.81;;;5.23;64.85
62374;BME280;48409;49.030;1.820;2023-01-28T02:36:54;101967.69;;;5.18;64.83
62374;BME280;48409;49.030;1.820;2023-01-28T02:39:26;101980.75;;;5.18;65.10
62374;BME280;48409;49.030;1.820;2023-01-28T02:42:00;101965.94;;;5.18;64.81
62374;BME280;48409;49.030;1.820;2023-01-28T02:44:28;101961.59;;;5.17;64.84
62374;BME280;48409;49.030;1.820;2023-01-28T02:46:53;101961.59;;;5.17;64.95
62374;BME280;48409;49.030;1.820;2023-01-28T02:49:47;101968.56;;;5.18;64.95
62374;BME280;48409;49.030;1.820;2023-01-28T03:02:33;101963.34;;;5.18;64.97
62374;BME280;48409;49.030;1.820;2023-01-28T03:05:10;101965.06;;;5.19;64.83
62374;BME280;48409;49.030;1.820;2023-01-28T03:07:39;101976.41;;;5.20;64.65
62374;BME280;48409;49.030;1.820;2023-01-28T03:10:08;101979.00;;;5.18;64.85
62374;BME280;48409;49.030;1.820;2023-01-28T03:12:37;101978.13;;;5.18;64.93
62374;BME280;48409;49.030;1.820;2023-01-28T03:15:28;101981.63;;;5.17;64.75
62374;BME280;48409;49.030;1.820;2023-01-28T03:18:18;101980.78;;;5.15;64.67
62374;BME280;48409;49.030;1.820;2023-01-28T03:23:56;101986.00;;;5.12;64.84
62374;BME280;48409;49.030;1.820;2023-01-28T03:27:15;101992.94;;;5.11;64.82
62374;BME280;48409;49.030;1.820;2023-01-28T03:30:08;101995.56;;;5.09;65.03
62374;BME280;48409;49.030;1.820;2023-01-28T03:32:55;101996.44;;;5.10;64.79
62374;BME280;48409;49.030;1.820;2023-01-28T03:35:40;101999.94;;;5.09;64.97
62374;BME280;48409;49.030;1.820;2023-01-28T03:38:24;101992.94;;;5.08;65.09
62374;BME280;48409;49.030;1.820;2023-01-28T03:41:00;101995.56;;;5.09;64.83
62374;BME280;48409;49.030;1.820;2023-01-28T03:43:27;101991.22;;;5.08;64.96
62374;BME280;48409;49.030;1.820;2023-01-28T03:45:53;101985.13;;;5.09;65.11
62374;BME280;48409;49.030;1.820;2023-01-28T03:48:21;101995.56;;;5.11;65.06
62374;BME280;48409;49.030;1.820;2023-01-28T03:50:47;101996.44;;;5.10;64.88
62374;BME280;48409;49.030;1.820;2023-01-28T03:53:14;101998.19;;;5.11;65.00
62374;BME280;48409;49.030;1.820;2023-01-28T03:55:41;101997.28;;;5.12;65.03
62374;BME280;48409;49.030;1.820;2023-01-28T03:58:07;101996.44;;;5.13;65.08
62374;BME280;48409;49.030;1.820;2023-01-28T04:00:32;102004.28;;;5.15;65.12
62374;BME280;48409;49.030;1.820;2023-01-28T04:02:58;102000.78;;;5.14;65.15
62374;BME280;48409;49.030;1.820;2023-01-28T04:05:25;101998.19;;;5.14;65.00
62374;BME280;48409;49.030;1.820;2023-01-28T04:07:54;101999.91;;;5.15;65.12
62374;BME280;48409;49.030;1.820;2023-01-28T04:10:20;102012.09;;;5.16;64.82
62374;BME280;48409;49.030;1.820;2023-01-28T04:12:45;102010.38;;;5.15;64.90
62374;BME280;48409;49.030;1.820;2023-01-28T04:15:16;102017.31;;;5.16;65.12
62374;BME280;48409;49.030;1.820;2023-01-28T04:17:46;102019.09;;;5.17;64.91
62374;BME280;48409;49.030;1.820;2023-01-28T04:20:12;102024.31;;;5.17;64.96
62374;BME280;48409;49.030;1.820;2023-01-28T04:22:38;102026.91;;;5.17;65.07
62374;BME280;48409;49.030;1.820;2023-01-28T04:25:03;102024.31;;;5.17;64.99
62374;BME280;48409;49.030;1.820;2023-01-28T04:27:29;102019.09;;;5.17;64.99
62374;BME280;48409;49.030;1.820;2023-01-28T04:29:54;102026.91;;;5.17;65.11
62374;BME280;48409;49.030;1.820;2023-01-28T04:32:20;102023.41;;;5.17;65.14
62374;BME280;48409;49.030;1.820;2023-01-28T04:34:45;102029.53;;;5.17;65.01
62374;BME280;48409;49.030;1.820;2023-01-28T04:37:10;102037.34;;;5.19;64.96
62374;BME280;48409;49.030;1.820;2023-01-28T04:39:36;102030.38;;;5.18;65.06
62374;BME280;48409;49.030;1.820;2023-01-28T04:42:01;102040.84;;;5.18;65.03
62374;BME280;48409;49.030;1.820;2023-01-28T04:44:26;102040.84;;;5.18;65.01
62374;BME280;48409;49.030;1.820;2023-01-28T04:46:52;102041.72;;;5.18;65.17
62374;BME280;48409;49.030;1.820;2023-01-28T04:49:17;102029.53;;;5.17;64.84
62374;BME280;48409;49.030;1.820;2023-01-28T04:51:42;102043.44;;;5.19;65.11
62374;BME280;48409;49.030;1.820;2023-01-28T04:54:08;102040.84;;;5.18;65.12
62374;BME280;48409;49.030;1.820;2023-01-28T04:56:33;102039.94;;;5.19;65.09
62374;BME280;48409;49.030;1.820;2023-01-28T04:58:59;102041.72;;;5.18;65.03
62374;BME280;48409;49.030;1.820;2023-01-28T05:01:24;102040.84;;;5.18;64.96
62374;BME280;48409;49.030;1.820;2023-01-28T05:03:50;102034.75;;;5.17;64.92
62374;BME280;48409;49.030;1.820;2023-01-28T05:06:15;102033.00;;;5.19;65.17
62374;BME280;48409;49.030;1.820;2023-01-28T05:08:41;102028.66;;;5.20;65.05
62374;BME280;48409;49.030;1.820;2023-01-28T05:11:06;102030.38;;;5.19;65.00
62374;BME280;48409;49.030;1.820;2023-01-28T05:13:32;102027.78;;;5.19;64.96
62374;BME280;48409;49.030;1.820;2023-01-28T05:15:57;102037.34;;;5.20;64.86
62374;BME280;48409;49.030;1.820;2023-01-28T05:18:23;102034.72;;;5.20;65.12
62374;BME280;48409;49.030;1.820;2023-01-28T05:20:48;102038.22;;;5.19;65.02
62374;BME280;48409;49.030;1.820;2023-01-28T05:23:13;102029.50;;;5.20;64.94
62374;BME280;48409;49.030;1.820;2023-01-28T05:25:39;102030.38;;;5.19;65.12
62374;BME280;48409;49.030;1.820;2023-01-28T05:28:04;102036.50;;;5.20;64.85
62374;BME280;48409;49.030;1.820;2023-01-28T05:30:30;102032.13;;;5.20;65.00
62374;BME280;48409;49.030;1.820;2023-01-28T05:32:56;102033.88;;;5.20;65.04
62374;BME280;48409;49.030;1.820;2023-01-28T05:35:21;102033.88;;;5.20;65.08
62374;BME280;48409;49.030;1.820;2023-01-28T05:37:47;102029.50;;;5.20;64.99
62374;BME280;48409;49.030;1.820;2023-01-28T05:40:13;102033.00;;;5.19;64.94
62374;BME280;48409;49.030;1.820;2023-01-28T05:42:38;102037.34;;;5.20;65.14
62374;BME280;48409;49.030;1.820;2023-01-28T05:45:04;102042.56;;;5.20;64.95
62374;BME280;48409;49.030;1.820;2023-01-28T05:47:29;102036.50;;;5.21;64.90
62374;BME280;48409;49.030;1.820;2023-01-28T05:49:55;102041.72;;;5.21;64.99
62374;BME280;48409;49.030;1.820;2023-01-28T05:52:20;102045.19;;;5.22;65.02
62374;BME280;48409;49.030;1.820;2023-01-28T05:54:46;102040.84;;;5.21;64.90
62374;BME280;48409;49.030;1.820;2023-01-28T05:57:11;102053.00;;;5.20;65.00
62374;BME280;48409;49.030;1.820;2023-01-28T05:59:36;102048.66;;;5.21;64.93
62374;BME280;48409;49.030;1.820;2023-01-28T06:02:02;102053.91;;;5.19;65.01
62374;BME280;48409;49.030;1.820;2023-01-28T06:04:27;102069.56;;;5.19;64.85
62374;BME280;48409;49.030;1.820;2023-01-28T06:06:52;102071.31;;;5.20;65.09
62374;BME280;48409;49.030;1.820;2023-01-28T06:09:18;102066.06;;;5.20;64.93
62374;BME280;48409;49.030;1.820;2023-01-28T06:11:43;102074.78;;;5.21;64.91
62374;BME280;48409;49.030;1.820;2023-01-28T06:14:10;102071.31;;;5.20;64.92
62374;BME280;48409;49.030;1.820;2023-01-28T06:16:35;102073.91;;;5.20;65.11
62374;BME280;48409;49.030;1.820;2023-01-28T06:19:01;102075.69;;;5.20;64.96
62374;BME280;48409;49.030;1.820;2023-01-28T06:21:27;102069.56;;;5.19;64.92
62374;BME280;48409;49.030;1.820;2023-01-28T06:23:52;102085.25;;;5.21;65.10
62374;BME280;48409;49.030;1.820;2023-01-28T06:26:17;102076.53;;;5.20;65.02
62374;BME280;48409;49.030;1.820;2023-01-28T06:28:43;102079.13;;;5.20;64.91
62374;BME280;48409;49.030;1.820;2023-01-28T06:31:08;102083.50;;;5.18;64.77
62374;BME280;48409;49.030;1.820;2023-01-28T06:33:34;102090.47;;;5.21;64.96
62374;BME280;48409;49.030;1.820;2023-01-28T06:36:02;102082.63;;;5.21;65.11
62374;BME280;48409;49.030;1.820;2023-01-28T06:38:28;102076.53;;;5.20;64.89
62374;BME280;48409;49.030;1.820;2023-01-28T06:40:53;102076.53;;;5.20;64.88
62374;BME280;48409;49.030;1.820;2023-01-28T06:43:20;102075.69;;;5.20;64.97
62374;BME280;48409;49.030;1.820;2023-01-28T06:45:52;102086.97;;;5.20;65.04
62374;BME280;48409;49.030;1.820;2023-01-28T06:48:18;102088.75;;;5.20;65.03
62374;BME280;48409;49.030;1.820;2023-01-28T06:50:46;102090.47;;;5.19;64.93
62374;BME280;48409;49.030;1.820;2023-01-28T06:53:11;102080.91;;;5.20;65.04
62374;BME280;48409;49.030;1.820;2023-01-28T06:55:36;102095.69;;;5.19;65.01
62374;BME280;48409;49.030;1.820;2023-01-28T06:58:02;102097.44;;;5.20;65.04
62374;BME280;48409;49.030;1.820;2023-01-28T07:00:27;102100.03;;;5.20;65.13
62374;BME280;48409;49.030;1.820;2023-01-28T07:02:54;102096.56;;;5.20;64.83
62374;BME280;48409;49.030;1.820;2023-01-28T07:05:21;102102.66;;;5.20;65.03
62374;BME280;48409;49.030;1.820;2023-01-28T07:07:46;102102.66;;;5.20;65.03
62374;BME280;48409;49.030;1.820;2023-01-28T07:10:11;102111.38;;;5.19;65.02
62374;BME280;48409;49.030;1.820;2023-01-28T07:12:37;102107.88;;;5.20;64.95
62374;BME280;48409;49.030;1.820;2023-01-28T07:15:03;102104.41;;;5.18;64.95
62374;BME280;48409;49.030;1.820;2023-01-28T07:17:28;102103.53;;;5.19;64.87
62374;BME280;48409;49.030;1.820;2023-01-28T07:19:54;102111.38;;;5.19;65.02
62374;BME280;48409;49.030;1.820;2023-01-28T07:22:19;102110.47;;;5.19;64.95
62374;BME280;48409;49.030;1.820;2023-01-28T07:24:44;102115.72;;;5.19;64.98
62374;BME280;48409;49.030;1.820;2023-01-28T07:27:10;102110.47;;;5.19;65.02
62374;BME280;48409;49.030;1.820;2023-01-28T07:29:35;102111.38;;;5.18;64.94
62374;BME280;48409;49.030;1.820;2023-01-28T07:32:01;102114.88;;;5.18;64.98
62374;BME280;48409;49.030;1.820;2023-01-28T07:34:26;102116.59;;;5.19;64.80
62374;BME280;48409;49.030;1.820;2023-01-28T07:36:52;102111.38;;;5.19;64.86
62374;BME280;48409;49.030;1.820;2023-01-28T07:39:17;102114.88;;;5.18;64.94
62374;BME280;48409;49.030;1.820;2023-01-28T07:41:42;102119.22;;;5.19;65.04
62374;BME280;48409;49.030;1.820;2023-01-28T07:44:08;102123.56;;;5.19;65.04
62374;BME280;48409;49.030;1.820;2023-01-28T07:46:33;102123.56;;;5.17;65.00
62374;BME280;48409;49.030;1.820;2023-01-28T07:48:59;102120.94;;;5.19;64.85
62374;BME280;48409;49.030;1.820;2023-01-28T07:51:24;102120.09;;;5.18;64.78
62374;BME280;48409;49.030;1.820;2023-01-28T07:53:50;102127.94;;;5.18;64.88
62374;BME280;48409;49.030;1.820;2023-01-28T07:56:15;102133.16;;;5.18;65.04
62374;BME280;48409;49.030;1.820;2023-01-28T07:58:40;102135.75;;;5.18;65.00
62374;BME280;48409;49.030;1.820;2023-01-28T08:01:06;102123.56;;;5.17;65.19
62374;BME280;48409;49.030;1.820;2023-01-28T08:03:31;102127.03;;;5.19;65.06
62374;BME280;48409;49.030;1.820;2023-01-28T08:05:57;102134.88;;;5.19;65.04
62374;BME280;48409;49.030;1.820;2023-01-28T08:08:24;102130.53;;;5.18;65.05
62374;BME280;48409;49.030;1.820;2023-01-28T08:10:50;102134.88;;;5.19;65.02
62374;BME280;48409;49.030;1.820;2023-01-28T08:13:16;102140.97;;;5.18;64.89
62374;BME280;48409;49.030;1.820;2023-01-28T08:15:42;102143.59;;;5.18;65.03
62374;BME280;48409;49.030;1.820;2023-01-28T08:18:10;102151.44;;;5.20;64.87
62374;BME280;48409;49.030;1.820;2023-01-28T08:20:37;102146.22;;;5.20;65.17
62374;BME280;48409;49.030;1.820;2023-01-28T08:23:15;102144.44;;;5.20;65.19
62374;BME280;48409;49.030;1.820;2023-01-28T08:25:41;102154.91;;;5.20;64.94
62374;BME280;48409;49.030;1.820;2023-01-28T08:28:08;102160.13;;;5.22;65.05
62374;BME280;48409;49.030;1.820;2023-01-28T08:30:34;102157.53;;;5.22;64.79
62374;BME280;48409;49.030;1.820;2023-01-28T08:33:02;102163.63;;;5.21;64.90
62374;BME280;48409;49.030;1.820;2023-01-28T08:35:28;102167.13;;;5.21;64.94
62374;BME280;48409;49.030;1.820;2023-01-28T08:37:54;102169.72;;;5.21;64.94
62374;BME280;48409;49.030;1.820;2023-01-28T08:40:20;102175.81;;;5.22;65.01
62374;BME280;48409;49.030;1.820;2023-01-28T08:42:50;102168.84;;;5.22;64.94
62374;BME280;48409;49.030;1.820;2023-01-28T08:45:19;102174.94;;;5.23;64.71
62374;BME280;48409;49.030;1.820;2023-01-28T08:47:59;102160.13;;;5.23;64.86
62374;BME280;48409;49.030;1.820;2023-01-28T08:50:28;102170.59;;;5.23;64.90
62374;BME280;48409;49.030;1.820;2023-01-28T08:53:16;102162.75;;;5.23;65.01
62374;BME280;48409;49.030;1.820;2023-01-28T08:55:42;102166.25;;;5.24;64.77
62374;BME280;48409;49.030;1.820;2023-01-28T08:58:13;102168.84;;;5.22;65.05
62374;BME280;48409;49.030;1.820;2023-01-28T09:00:40;102168.84;;;5.24;64.75
62374;BME280;48409;49.030;1.820;2023-01-28T09:03:05;102172.31;;;5.25;65.14
62374;BME280;48409;49.030;1.820;2023-01-28T09:05:32;102181.03;;;5.23;64.97
62374;BME280;48409;49.030;1.820;2023-01-28T09:08:03;102181.91;;;5.24;65.14
62374;BME280;48409;49.030;1.820;2023-01-28T09:10:29;102195.84;;;5.25;64.91
62374;BME280;48409;49.030;1.820;2023-01-28T09:12:54;102197.59;;;5.24;65.09
62374;BME280;48409;49.030;1.820;2023-01-28T09:15:19;102191.50;;;5.23;64.94
62374;BME280;48409;49.030;1.820;2023-01-28T09:17:45;102212.41;;;5.27;65.17
62374;BME280;48409;49.030;1.820;2023-01-28T09:20:10;102203.69;;;5.25;64.86
62374;BME280;48409;49.030;1.820;2023-01-28T09:22:37;102198.44;;;5.25;64.96
62374;BME280;48409;49.030;1.820;2023-01-28T09:25:02;102195.84;;;5.26;64.84
62374;BME280;48409;49.030;1.820;2023-01-28T09:27:28;102196.72;;;5.27;64.92
62374;BME280;48409;49.030;1.820;2023-01-28T09:29:53;102198.47;;;5.28;64.97
62374;BME280;48409;49.030;1.820;2023-01-28T09:32:18;102188.88;;;5.28;65.10
62374;BME280;48409;49.030;1.820;2023-01-28T09:34:44;102194.97;;;5.29;65.15
62374;BME280;48409;49.030;1.820;2023-01-28T09:37:10;102194.97;;;5.29;64.96
62374;BME280;48409;49.030;1.820;2023-01-28T09:39:36;102194.09;;;5.30;64.92
62374;BME280;48409;49.030;1.820;2023-01-28T09:47:18;102184.53;;;5.29;65.03
62374;BME280;48409;49.030;1.820;2023-01-28T09:49:48;102196.69;;;5.30;64.91
62374;BME280;48409;49.030;1.820;2023-01-28T09:52:18;102198.47;;;5.31;64.71
62374;BME280;48409;49.030;1.820;2023-01-28T09:54:48;102203.69;;;5.31;64.97
62374;BME280;48409;49.030;1.820;2023-01-28T09:57:24;102215.88;;;5.32;64.82
62374;BME280;48409;49.030;1.820;2023-01-28T09:59:49;102220.22;;;5.33;64.91
62374;BME280;48409;49.030;1.820;2023-01-28T10:02:32;102222.84;;;5.33;64.77
62374;BME280;48409;49.030;1.820;2023-01-28T10:05:12;102230.69;;;5.33;64.95
62374;BME280;48409;49.030;1.820;2023-01-28T10:07:56;102229.81;;;5.34;64.83
62374;BME280;48409;49.030;1.820;2023-01-28T10:15:58;102251.59;;;5.33;64.80
62374;BME280;48409;49.030;1.820;2023-01-28T10:18:33;102255.97;;;5.31;64.99
62374;BME280;48409;49.030;1.820;2023-01-28T10:21:07;102255.94;;;5.29;64.88
62374;BME280;48409;49.030;1.820;2023-01-28T10:23:44;102257.69;;;5.29;65.15
62374;BME280;48409;49.030;1.820;2023-01-28T10:26:21;102256.81;;;5.30;65.00
62374;BME280;48409;49.030;1.820;2023-01-28T10:28:52;102259.41;;;5.30;64.91
62374;BME280;48409;49.030;1.820;2023-01-28T10:31:19;102255.97;;;5.31;65.05
62374;BME280;48409;49.030;1.820;2023-01-28T10:33:45;102252.47;;;5.32;64.84
62374;BME280;48409;49.030;1.820;2023-01-28T10:36:11;102253.34;;;5.32;64.86
62374;BME280;48409;49.030;1.820;2023-01-28T10:38:36;102255.94;;;5.34;64.78
62374;BME280;48409;49.030;1.820;2023-01-28T10:41:03;102257.72;;;5.35;65.08
62374;BME280;48409;49.030;1.820;2023-01-28T10:43:34;102255.06;;;5.36;64.96
62374;BME280;48409;49.030;1.820;2023-01-28T10:48:44;102248.13;;;5.39;64.88
62374;BME280;48409;49.030;1.820;2023-01-28T10:51:10;102255.09;;;5.40;64.97
62374;BME280;48409;49.030;1.820;2023-01-28T10:53:41;102255.06;;;5.38;64.96
62374;BME280;48409;49.030;1.820;2023-01-28T10:56:24;102244.63;;;5.41;64.79
62374;BME280;48409;49.030;1.820;2023-01-28T10:59:03;102246.34;;;5.41;64.75
62374;BME280;48409;49.030;1.820;2023-01-28T11:01:48;102247.25;;;5.41;65.12
62374;BME280;48409;49.030;1.820;2023-01-28T11:04:17;102254.22;;;5.42;64.83
62374;BME280;48409;49.030;1.820;2023-01-28T11:07:00;102254.22;;;5.42;64.88
62374;BME280;48409;49.030;1.820;2023-01-28T11:09:36;102255.94;;;5.43;65.11
62374;BME280;48409;49.030;1.820;2023-01-28T11:12:16;102255.94;;;5.43;64.81
62374;BME280;48409;49.030;1.820;2023-01-28T11:14:50;102246.38;;;5.44;65.03
62374;BME280;48409;49.030;1.820;2023-01-28T11:17:17;102248.97;;;5.42;64.87
62374;BME280;48409;49.030;1.820;2023-01-28T11:19:43;102253.31;;;5.43;64.96
62374;BME280;48409;49.030;1.820;2023-01-28T11:24:47;102242.91;;;5.42;64.93
62374;BME280;48409;49.030;1.820;2023-01-28T11:27:16;102235.03;;;5.43;64.84
62374;BME280;48409;49.030;1.820;2023-01-28T11:29:43;102242.03;;;5.44;64.96
62374;BME280;48409;49.030;1.820;2023-01-28T11:32:19;102241.16;;;5.45;65.10
62374;BME280;48409;49.030;1.820;2023-01-28T11:34:52;102233.31;;;5.45;65.03
62374;BME280;48409;49.030;1.820;2023-01-28T11:37:20;102231.56;;;5.47;64.88
62374;BME280;48409;49.030;1.820;2023-01-28T11:39:47;102235.94;;;5.47;64.85
62374;BME280;48409;49.030;1.820;2023-01-28T11:42:20;102230.69;;;5.50;65.04
62374;BME280;48409;49.030;1.820;2023-01-28T11:44:47;102221.09;;;5.51;64.75
62374;BME280;48409;49.030;1.820;2023-01-28T11:47:39;102228.06;;;5.52;65.03
62374;BME280;48409;49.030;1.820;2023-01-28T11:50:23;102227.22;;;5.51;64.95
62374;BME280;48409;49.030;1.820;2023-01-28T12:01:08;102228.97;;;5.55;65.02
62374;BME280;48409;49.030;1.820;2023-01-28T12:06:23;102224.59;;;5.56;64.95
62374;BME280;48409;49.030;1.820;2023-01-28T12:15:02;102219.38;;;5.59;64.77
62374;BME280;48409;49.030;1.820;2023-01-28T12:20:45;102214.13;;;5.59;64.99
62374;BME280;48409;49.030;1.820;2023-01-28T12:23:43;102214.13;;;5.59;64.78
62374;BME280;48409;49.030;1.820;2023-01-28T12:26:19;102213.25;;;5.61;64.86
62374;BME280;48409;49.030;1.820;2023-01-28T12:42:55;102202.81;;;5.63;65.04
62374;BME280;48409;49.030;1.820;2023-01-28T12:45:35;102201.94;;;5.64;64.89
62374;BME280;48409;49.030;1.820;2023-01-28T12:48:08;102204.53;;;5.64;64.70
62374;BME280;48409;49.030;1.820;2023-01-28T12:53:39;102203.69;;;5.60;64.60
62374;BME280;48409;49.030;1.820;2023-01-28T12:56:13;102206.28;;;5.59;64.74
62374;BME280;48409;49.030;1.820;2023-01-28T12:58:52;102209.78;;;5.58;64.80
62374;BME280;48409;49.030;1.820;2023-01-28T13:01:26;102210.66;;;5.57;64.89
62374;BME280;48409;49.030;1.820;2023-01-28T13:07:13;102200.19;;;5.60;64.96
62374;BME280;48409;49.030;1.820;2023-01-28T13:10:03;102204.56;;;5.59;64.87
62374;BME280;48409;49.030;1.820;2023-01-28T13:12:31;102199.34;;;5.59;64.92
62374;BME280;48409;49.030;1.820;2023-01-28T13:14:58;102201.91;;;5.61;64.78
62374;BME280;48409;49.030;1.820;2023-01-28T13:17:27;102200.19;;;5.63;64.75
62374;BME280;48409;49.030;1.820;2023-01-28T13:19:53;102194.97;;;5.63;64.81
62374;BME280;48409;49.030;1.820;2023-01-28T13:22:36;102191.47;;;5.64;64.93
62374;BME280;48409;49.030;1.820;2023-01-28T13:25:23;102181.00;;;5.64;64.71
62374;BME280;48409;49.030;1.820;2023-01-28T13:28:03;102185.34;;;5.65;64.64
62374;BME280;48409;49.030;1.820;2023-01-28T13:30:32;102191.47;;;5.67;64.59
62374;BME280;48409;49.030;1.820;2023-01-28T13:33:04;102179.28;;;5.66;64.75
62374;BME280;48409;49.030;1.820;2023-01-28T13:35:38;102162.72;;;5.67;64.73
62374;BME280;48409;49.030;1.820;2023-01-28T13:38:18;102170.56;;;5.69;64.50
62374;BME280;48409;49.030;1.820;2023-01-28T13:40:59;102158.34;;;5.69;64.67
62374;BME280;48409;49.030;1.820;2023-01-28T13:45:58;102163.56;;;5.69;64.56
62374;BME280;48409;49.030;1.820;2023-01-28T13:51:33;102171.41;;;5.69;64.58
62374;BME280;48409;49.030;1.820;2023-01-28T13:54:06;102172.28;;;5.71;64.77
62374;BME280;48409;49.030;1.820;2023-01-28T13:59:48;102173.16;;;5.73;64.63
62374;BME280;48409;49.030;1.820;2023-01-28T14:10:33;102186.22;;;5.80;64.62
62374;BME280;48409;49.030;1.820;2023-01-28T14:13:11;102184.47;;;5.80;64.80
62374;BME280;48409;49.030;1.820;2023-01-28T14:18:41;102197.53;;;5.83;64.66
62374;BME280;48409;49.030;1.820;2023-01-28T14:21:13;102188.81;;;5.83;64.71
62374;BME280;48409;49.030;1.820;2023-01-28T14:23:45;102182.72;;;5.84;64.84
62374;BME280;48409;49.030;1.820;2023-01-28T14:26:24;102180.97;;;5.86;64.64
62374;BME280;48409;49.030;1.820;2023-01-28T14:31:30;102189.69;;;5.88;64.46
62374;BME280;48409;49.030;1.820;2023-01-28T14:34:21;102190.56;;;5.90;64.60
62374;BME280;48409;49.030;1.820;2023-01-28T14:36:48;102195.78;;;5.90;64.47
62374;BME280;48409;49.030;1.820;2023-01-28T14:39:40;102190.56;;;5.90;64.48
62374;BME280;48409;49.030;1.820;2023-01-28T14:42:15;102196.63;;;5.92;64.54
62374;BME280;48409;49.030;1.820;2023-01-28T14:44:43;102201.03;;;5.93;64.44
62374;BME280;48409;49.030;1.820;2023-01-28T14:52:47;102178.31;;;5.92;64.43
62374;BME280;48409;49.030;1.820;2023-01-28T14:55:35;102180.09;;;5.92;64.47
62374;BME280;48409;49.030;1.820;2023-01-28T14:58:09;102189.66;;;5.91;64.42
62374;BME280;48409;49.030;1.820;2023-01-28T15:00:39;102195.78;;;5.90;64.40
62374;BME280;48409;49.030;1.820;2023-01-28T15:03:16;102214.09;;;5.90;64.28